createdAt,value
2019-04-24T00:00:19.256Z,1001.88
2019-04-24T00:01:05.843Z,1001.93
2019-04-24T00:02:17.199Z,1001.87
2019-04-24T00:04:10.739Z,1001.91
2019-04-24T00:05:16.305Z,1001.85
2019-04-24T00:06:57.667Z,1001.88
2019-04-24T00:08:06.829Z,1001.81
2019-04-24T00:08:55.908Z,1001.80
2019-04-24T00:10:02.597Z,1001.85
2019-04-24T00:11:20.518Z,1001.81
2019-04-24T00:13:06.700Z,1001.84
2019-04-24T00:14:10.569Z,1001.88
2019-04-24T00:15:57.375Z,1001.83
2019-04-24T00:17:07.082Z,1001.79
2019-04-24T00:18:25.613Z,1001.82
2019-04-24T00:20:07.991Z,1001.79
2019-04-24T00:21:03.524Z,1001.83
2019-04-24T00:22:04.126Z,1001.81
2019-04-24T00:23:03.886Z,1001.84
2019-04-24T00:25:04.081Z,1001.78
2019-04-24T00:25:53.376Z,1001.85
2019-04-24T00:26:59.282Z,1001.80
2019-04-24T00:27:58.595Z,1001.77
2019-04-24T00:29:02.694Z,1001.81
2019-04-24T00:29:55.756Z,1001.79
2019-04-24T00:30:58.660Z,1001.69
2019-04-24T00:31:56.380Z,1001.74
2019-04-24T00:33:03.425Z,1001.73
2019-04-24T00:34:08.005Z,1001.69
2019-04-24T00:35:02.897Z,1001.77
2019-04-24T00:36:17.940Z,1001.69
2019-04-24T00:37:00.395Z,1001.69
2019-04-24T00:37:57.527Z,1001.67
2019-04-24T00:40:03.133Z,1001.66
2019-04-24T00:41:09.074Z,1001.73
2019-04-24T00:43:15.268Z,1001.76
2019-04-24T00:45:01.094Z,1001.78
2019-04-24T00:45:56.617Z,1001.79
2019-04-24T00:48:09.080Z,1001.76
2019-04-24T00:48:56.500Z,1001.72
2019-04-24T00:51:06.716Z,1001.67
2019-04-24T00:51:52.004Z,1001.67
2019-04-24T00:54:03.208Z,1001.71
2019-04-24T00:54:52.161Z,1001.68
2019-04-24T00:56:03.941Z,1001.68
2019-04-24T00:56:58.785Z,1001.68
2019-04-24T00:58:01.128Z,1001.60
2019-04-24T00:59:09.495Z,1001.58
2019-04-24T00:59:45.813Z,1001.72
2019-04-24T01:01:02.574Z,1001.62
2019-04-24T01:02:10.269Z,1001.61
2019-04-24T01:02:58.684Z,1001.60
2019-04-24T01:04:01.805Z,1001.59
2019-04-24T01:05:56.719Z,1001.61
2019-04-24T01:07:14.207Z,1001.66
2019-04-24T01:08:02.063Z,1001.62
2019-04-24T01:08:47.214Z,1001.60
2019-04-24T01:10:06.717Z,1001.55
2019-04-24T01:10:45.554Z,1001.54
2019-04-24T01:11:59.450Z,1001.57
2019-04-24T01:13:04.903Z,1001.58
2019-04-24T01:13:58.157Z,1001.55
2019-04-24T01:14:59.556Z,1001.63
2019-04-24T01:16:00.758Z,1001.67
2019-04-24T01:16:56.100Z,1001.66
2019-04-24T01:17:48.658Z,1001.60
2019-04-24T01:18:50.311Z,1001.51
2019-04-24T01:20:15.597Z,1001.59
2019-04-24T01:20:57.835Z,1001.62
2019-04-24T01:21:59.785Z,1001.57
2019-04-24T01:23:15.368Z,1001.64
2019-04-24T01:23:53.954Z,1001.71
2019-04-24T01:25:03.008Z,1001.58
2019-04-24T01:26:51.341Z,1001.66
2019-04-24T01:28:07.596Z,1001.55
2019-04-24T01:30:11.165Z,1001.53
2019-04-24T01:31:51.349Z,1001.59
2019-04-24T01:33:18.078Z,1001.52
2019-04-24T01:33:49.688Z,1001.52
2019-04-24T01:36:02.389Z,1001.55
2019-04-24T01:37:09.466Z,1001.53
2019-04-24T01:38:50.789Z,1001.54
2019-04-24T01:39:50.847Z,1001.48
2019-04-24T01:40:52.536Z,1001.55
2019-04-24T01:42:02.146Z,1001.52
2019-04-24T01:43:05.438Z,1001.49
2019-04-24T01:43:51.139Z,1001.48
2019-04-24T01:45:01.255Z,1001.49
2019-04-24T01:45:54.401Z,1001.43
2019-04-24T01:48:07.379Z,1001.51
2019-04-24T01:48:51.919Z,1001.50
2019-04-24T01:51:07.518Z,1001.50
2019-04-24T01:52:13.986Z,1001.51
2019-04-24T01:52:59.094Z,1001.51
2019-04-24T01:53:48.401Z,1001.53
2019-04-24T01:54:49.103Z,1001.58
2019-04-24T01:55:48.277Z,1001.54
2019-04-24T01:57:46.460Z,1001.53
2019-04-24T01:58:55.040Z,1001.50
2019-04-24T01:59:49.078Z,1001.55
2019-04-24T02:03:50.829Z,1001.48
2019-04-24T02:04:56.555Z,1001.45
2019-04-24T02:05:44.895Z,1001.50
2019-04-24T02:06:42.231Z,1001.47
2019-04-24T02:07:47.595Z,1001.43
2019-04-24T02:08:39.556Z,1001.47
2019-04-24T02:09:56.156Z,1001.46
2019-04-24T02:11:12.311Z,1001.47
2019-04-24T02:13:35.923Z,1001.39
2019-04-24T02:15:12.970Z,1001.42
2019-04-24T02:15:43.534Z,1001.41
2019-04-24T02:16:42.963Z,1001.39
2019-04-24T02:19:47.818Z,1001.32
2019-04-24T02:20:39.854Z,1001.44
2019-04-24T02:22:49.734Z,1001.36
2019-04-24T02:23:47.815Z,1001.42
2019-04-24T02:24:56.086Z,1001.31
2019-04-24T02:26:37.504Z,1001.39
2019-04-24T02:27:56.502Z,1001.33
2019-04-24T02:30:11.886Z,1001.37
2019-04-24T02:32:18.638Z,1001.39
2019-04-24T02:34:00.714Z,1001.43
2019-04-24T02:36:04.557Z,1001.40
2019-04-24T02:36:59.516Z,1001.36
2019-04-24T02:37:55.700Z,1001.39
2019-04-24T02:40:49.277Z,1001.33
2019-04-24T02:43:54.818Z,1001.34
2019-04-24T02:46:51.848Z,1001.33
2019-04-24T02:49:15.205Z,1001.30
2019-04-24T02:50:51.633Z,1001.34
2019-04-24T02:51:52.533Z,1001.32
2019-04-24T02:52:57.867Z,1001.32
2019-04-24T02:53:51.871Z,1001.31
2019-04-24T02:55:40.713Z,1001.29
2019-04-24T02:58:54.987Z,1001.28
2019-04-24T02:59:57.272Z,1001.28
2019-04-24T03:00:55.460Z,1001.26
2019-04-24T03:03:05.579Z,1001.26
2019-04-24T03:03:54.924Z,1001.26
2019-04-24T03:05:57.688Z,1001.29
2019-04-24T03:08:56.108Z,1001.27
2019-04-24T03:10:12.390Z,1001.25
2019-04-24T03:10:55.444Z,1001.26
2019-04-24T03:12:10.689Z,1001.25
2019-04-24T03:15:02.553Z,1001.26
2019-04-24T03:17:41.675Z,1001.24
2019-04-24T03:18:56.643Z,1001.26
2019-04-24T03:19:49.639Z,1001.27
2019-04-24T03:22:56.717Z,1001.21
2019-04-24T03:23:46.107Z,1001.22
2019-04-24T03:29:02.501Z,1001.27
2019-04-24T03:33:23.536Z,1001.24
2019-04-24T03:37:01.404Z,1001.27
2019-04-24T03:44:14.166Z,1001.29
2019-04-24T03:52:06.820Z,1001.36
2019-04-24T03:52:36.778Z,1001.35
2019-04-24T03:54:10.422Z,1001.37
2019-04-24T03:54:55.381Z,1001.36
2019-04-24T03:57:03.484Z,1001.38
2019-04-24T03:58:58.450Z,1001.32
2019-04-24T04:00:03.224Z,1001.39
2019-04-24T04:00:48.718Z,1001.40
2019-04-24T04:01:52.164Z,1001.39
2019-04-24T04:03:52.654Z,1001.42
2019-04-24T04:05:06.662Z,1001.41
2019-04-24T04:10:46.918Z,1001.38
2019-04-24T04:11:57.891Z,1001.40
2019-04-24T04:13:41.378Z,1001.37
2019-04-24T04:15:40.471Z,1001.42
2019-04-24T04:18:53.429Z,1001.33
2019-04-24T04:21:44.806Z,1001.34
2019-04-24T04:23:05.751Z,1001.36
2019-04-24T04:24:40.838Z,1001.33
2019-04-24T04:26:04.594Z,1001.38
2019-04-24T04:27:48.131Z,1001.38
2019-04-24T04:29:00.477Z,1001.31
2019-04-24T04:34:04.354Z,1001.40
2019-04-24T04:34:45.600Z,1001.40
2019-04-24T04:35:49.572Z,1001.34
2019-04-24T04:37:58.477Z,1001.39
2019-04-24T04:39:48.830Z,1001.39
2019-04-24T04:44:03.302Z,1001.44
2019-04-24T04:45:56.595Z,1001.47
2019-04-24T04:46:54.694Z,1001.39
2019-04-24T04:47:27.317Z,1001.43
2019-04-24T04:50:11.815Z,1001.44
2019-04-24T04:51:43.543Z,1001.44
2019-04-24T04:56:38.514Z,1001.45
2019-04-24T04:57:54.232Z,1001.48
2019-04-24T04:59:50.068Z,1001.51
2019-04-24T05:01:49.506Z,1001.46
2019-04-24T05:03:41.966Z,1001.49
2019-04-24T05:07:38.598Z,1001.53
2019-04-24T05:11:52.614Z,1001.59
2019-04-24T05:12:46.981Z,1001.57
2019-04-24T05:13:51.507Z,1001.54
2019-04-24T05:15:28.293Z,1001.57
2019-04-24T05:16:59.597Z,1001.54
2019-04-24T05:17:57.647Z,1001.50
2019-04-24T05:18:56.273Z,1001.56
2019-04-24T05:22:32.511Z,1001.49
2019-04-24T05:24:32.823Z,1001.52
2019-04-24T05:27:44.996Z,1001.51
2019-04-24T05:28:43.823Z,1001.51
2019-04-24T05:29:45.271Z,1001.51
2019-04-24T05:31:43.955Z,1001.46
2019-04-24T05:32:53.636Z,1001.49
2019-04-24T05:33:38.629Z,1001.49
2019-04-24T05:35:40.220Z,1001.48
2019-04-24T05:36:34.055Z,1001.46
2019-04-24T05:37:40.741Z,1001.51
2019-04-24T05:39:36.335Z,1001.44
2019-04-24T05:40:37.550Z,1001.43
2019-04-24T05:44:25.420Z,1001.38
2019-04-24T05:46:33.259Z,1001.38
2019-04-24T05:47:41.013Z,1001.44
2019-04-24T05:48:45.381Z,1001.47
2019-04-24T05:49:41.321Z,1001.48
2019-04-24T05:50:36.405Z,1001.50
2019-04-24T05:51:28.159Z,1001.41
2019-04-24T05:52:44.310Z,1001.45
2019-04-24T05:53:49.795Z,1001.48
2019-04-24T05:54:26.419Z,1001.47
2019-04-24T05:55:45.181Z,1001.52
2019-04-24T05:56:54.178Z,1001.50
2019-04-24T05:57:49.085Z,1001.50
2019-04-24T05:58:24.602Z,1001.51
2019-04-24T05:59:34.899Z,1001.57
2019-04-24T06:00:35.671Z,1001.61
2019-04-24T06:01:49.076Z,1001.54
2019-04-24T06:03:52.382Z,1001.54
2019-04-24T06:04:40.007Z,1001.55
2019-04-24T06:05:33.546Z,1001.55
2019-04-24T06:06:39.176Z,1001.53
2019-04-24T06:07:28.791Z,1001.57
2019-04-24T06:08:46.481Z,1001.57
2019-04-24T06:09:29.322Z,1001.53
2019-04-24T06:10:39.614Z,1001.52
2019-04-24T06:11:44.560Z,1001.55
2019-04-24T06:12:40.477Z,1001.59
2019-04-24T06:13:39.343Z,1001.54
2019-04-24T06:14:45.318Z,1001.55
2019-04-24T06:15:41.847Z,1001.49
2019-04-24T06:16:40.291Z,1001.56
2019-04-24T06:17:34.996Z,1001.60
2019-04-24T06:19:34.136Z,1001.58
2019-04-24T06:21:23.216Z,1001.58
2019-04-24T06:22:26.430Z,1001.60
2019-04-24T06:23:55.813Z,1001.64
2019-04-24T06:25:50.157Z,1001.69
2019-04-24T06:26:31.583Z,1001.66
2019-04-24T06:27:35.125Z,1001.70
2019-04-24T06:29:01.405Z,1001.72
2019-04-24T06:30:36.313Z,1001.80
2019-04-24T06:32:05.221Z,1001.78
2019-04-24T06:33:43.116Z,1001.83
2019-04-24T06:34:28.762Z,1001.86
2019-04-24T06:35:46.357Z,1001.79
2019-04-24T06:36:51.332Z,1001.89
2019-04-24T06:38:39.577Z,1001.85
2019-04-24T06:40:39.632Z,1001.86
2019-04-24T06:42:32.886Z,1001.90
2019-04-24T06:43:43.240Z,1001.90
2019-04-24T06:44:47.282Z,1001.90
2019-04-24T06:48:21.343Z,1001.96
2019-04-24T06:50:50.506Z,1001.92
2019-04-24T06:51:23.988Z,1001.94
2019-04-24T06:53:37.519Z,1001.98
2019-04-24T06:54:36.494Z,1001.93
2019-04-24T06:55:38.167Z,1001.92
2019-04-24T06:56:55.654Z,1001.95
2019-04-24T06:57:38.750Z,1002.01
2019-04-24T06:58:16.726Z,1001.97
2019-04-24T06:59:32.452Z,1001.98
2019-04-24T07:00:33.265Z,1002.03
2019-04-24T07:02:24.608Z,1002.01
2019-04-24T07:03:45.146Z,1001.97
2019-04-24T07:06:35.032Z,1002.07
2019-04-24T07:08:15.766Z,1002.03
2019-04-24T07:09:31.097Z,1001.98
2019-04-24T07:10:41.433Z,1002.05
2019-04-24T07:11:29.487Z,1002.00
2019-04-24T07:12:28.692Z,1002.00
2019-04-24T07:14:17.587Z,1002.11
2019-04-24T07:15:28.950Z,1002.09
2019-04-24T07:17:34.202Z,1002.08
2019-04-24T07:19:30.804Z,1002.06
2019-04-24T07:20:30.044Z,1002.15
2019-04-24T07:21:22.281Z,1002.13
2019-04-24T07:22:19.640Z,1002.11
2019-04-24T07:23:26.203Z,1002.13
2019-04-24T07:24:37.889Z,1002.20
2019-04-24T07:25:45.796Z,1002.08
2019-04-24T07:28:30.599Z,1002.14
2019-04-24T07:29:26.845Z,1002.13
2019-04-24T07:30:35.764Z,1002.13
2019-04-24T07:32:23.520Z,1002.19
2019-04-24T07:33:25.415Z,1002.16
2019-04-24T07:34:36.729Z,1002.17
2019-04-24T07:36:28.234Z,1002.25
2019-04-24T07:37:29.128Z,1002.25
2019-04-24T07:38:23.284Z,1002.24
2019-04-24T07:39:30.376Z,1002.35
2019-04-24T07:40:12.952Z,1002.28
2019-04-24T07:42:13.199Z,1002.31
2019-04-24T07:47:16.838Z,1002.36
2019-04-24T07:48:22.264Z,1002.35
2019-04-24T07:49:19.271Z,1002.39
2019-04-24T07:50:32.829Z,1002.41
2019-04-24T07:51:28.111Z,1002.31
2019-04-24T07:53:27.484Z,1002.40
2019-04-24T07:54:23.023Z,1002.37
2019-04-24T07:55:17.910Z,1002.38
2019-04-24T07:56:52.794Z,1002.42
2019-04-24T07:57:14.532Z,1002.36
2019-04-24T07:58:28.887Z,1002.42
2019-04-24T07:59:42.081Z,1002.38
2019-04-24T08:00:32.687Z,1002.39
2019-04-24T08:01:30.143Z,1002.37
2019-04-24T08:03:33.588Z,1002.38
2019-04-24T08:06:22.855Z,1002.42
2019-04-24T08:07:18.419Z,1002.45
2019-04-24T08:08:22.797Z,1002.45
2019-04-24T08:09:21.543Z,1002.47
2019-04-24T08:11:15.936Z,1002.48
2019-04-24T08:14:35.096Z,1002.47
2019-04-24T08:16:15.540Z,1002.52
2019-04-24T08:17:34.448Z,1002.45
2019-04-24T08:18:12.285Z,1002.52
2019-04-24T08:19:36.835Z,1002.53
2019-04-24T08:21:14.240Z,1002.60
2019-04-24T08:22:22.344Z,1002.61
2019-04-24T08:24:27.856Z,1002.59
2019-04-24T08:26:12.867Z,1002.60
2019-04-24T08:27:28.071Z,1002.54
2019-04-24T08:28:27.407Z,1002.58
2019-04-24T08:29:10.424Z,1002.62
2019-04-24T08:30:15.894Z,1002.55
2019-04-24T08:31:31.314Z,1002.60
2019-04-24T08:33:27.091Z,1002.59
2019-04-24T08:34:34.462Z,1002.58
2019-04-24T08:35:20.137Z,1002.59
2019-04-24T08:36:28.311Z,1002.60
2019-04-24T08:37:17.628Z,1002.57
2019-04-24T08:42:26.770Z,1002.68
2019-04-24T08:43:23.718Z,1002.65
2019-04-24T08:44:18.137Z,1002.66
2019-04-24T08:46:19.791Z,1002.65
2019-04-24T08:47:28.803Z,1002.62
2019-04-24T08:48:25.439Z,1002.67
2019-04-24T08:49:15.204Z,1002.66
2019-04-24T08:50:34.193Z,1002.65
2019-04-24T08:52:49.367Z,1002.68
2019-04-24T08:53:24.210Z,1002.69
2019-04-24T08:55:19.378Z,1002.77
2019-04-24T08:56:20.021Z,1002.81
2019-04-24T08:57:14.721Z,1002.79
2019-04-24T08:59:22.035Z,1002.82
2019-04-24T09:00:34.691Z,1002.84
2019-04-24T09:01:28.096Z,1002.82
2019-04-24T09:02:08.437Z,1002.76
2019-04-24T09:04:15.784Z,1002.74
2019-04-24T09:05:03.887Z,1002.86
2019-04-24T09:06:06.101Z,1002.83
2019-04-24T09:07:38.471Z,1002.84
2019-04-24T09:09:26.079Z,1002.89
2019-04-24T09:10:35.817Z,1002.83
2019-04-24T09:12:16.557Z,1002.86
2019-04-24T09:15:17.012Z,1002.87
2019-04-24T09:16:28.916Z,1002.99
2019-04-24T09:17:10.540Z,1002.91
2019-04-24T09:18:14.263Z,1002.94
2019-04-24T09:20:23.739Z,1002.94
2019-04-24T09:21:15.592Z,1002.90
2019-04-24T09:22:12.612Z,1002.95
2019-04-24T09:23:28.892Z,1002.95
2019-04-24T09:25:24.203Z,1003.00
2019-04-24T09:28:15.604Z,1003.02
2019-04-24T09:29:18.122Z,1002.98
2019-04-24T09:30:28.934Z,1002.98
2019-04-24T09:31:10.459Z,1002.97
2019-04-24T09:32:36.042Z,1002.96
2019-04-24T09:33:16.896Z,1002.87
2019-04-24T09:34:04.120Z,1002.85
2019-04-24T09:35:48.562Z,1002.91
2019-04-24T09:37:15.983Z,1002.91
2019-04-24T09:38:10.899Z,1002.75
2019-04-24T09:39:15.251Z,1002.84
2019-04-24T09:41:30.514Z,1002.69
2019-04-24T09:44:03.901Z,1002.77
2019-04-24T09:46:12.955Z,1002.84
2019-04-24T09:47:12.834Z,1002.81
2019-04-24T09:49:15.186Z,1002.74
2019-04-24T09:50:18.345Z,1002.70
2019-04-24T09:52:32.404Z,1002.75
2019-04-24T09:55:08.847Z,1002.77
2019-04-24T09:55:59.853Z,1002.77
2019-04-24T09:57:13.414Z,1002.80
2019-04-24T09:58:13.843Z,1002.79
2019-04-24T10:00:08.596Z,1002.73
2019-04-24T10:01:39.952Z,1002.63
2019-04-24T10:02:17.470Z,1002.70
2019-04-24T10:03:11.679Z,1002.65
2019-04-24T10:06:20.760Z,1002.61
2019-04-24T10:07:26.742Z,1002.65
2019-04-24T10:08:14.750Z,1002.69
2019-04-24T10:09:10.297Z,1002.61
2019-04-24T10:10:13.108Z,1002.69
2019-04-24T10:11:06.322Z,1002.62
2019-04-24T10:15:06.220Z,1002.60
2019-04-24T10:16:29.435Z,1002.63
2019-04-24T10:18:02.259Z,1002.69
2019-04-24T10:19:26.721Z,1002.67
2019-04-24T10:21:05.258Z,1002.59
2019-04-24T10:21:58.398Z,1002.54
2019-04-24T10:23:14.811Z,1002.59
2019-04-24T10:25:12.189Z,1002.56
2019-04-24T10:26:03.208Z,1002.48
2019-04-24T10:27:12.172Z,1002.51
2019-04-24T10:28:13.724Z,1002.54
2019-04-24T10:30:04.463Z,1002.57
2019-04-24T10:31:00.065Z,1002.57
2019-04-24T10:32:37.367Z,1002.54
2019-04-24T10:33:08.897Z,1002.53
2019-04-24T10:35:27.090Z,1002.52
2019-04-24T10:36:06.243Z,1002.55
2019-04-24T10:39:39.382Z,1002.47
2019-04-24T10:42:02.058Z,1002.44
2019-04-24T10:44:13.237Z,1002.45
2019-04-24T10:46:08.659Z,1002.51
2019-04-24T10:48:04.692Z,1002.59
2019-04-24T10:49:16.313Z,1002.66
2019-04-24T10:50:13.462Z,1002.71
2019-04-24T10:51:03.651Z,1002.68
2019-04-24T10:53:07.853Z,1002.71
2019-04-24T10:53:56.088Z,1002.68
2019-04-24T10:56:08.419Z,1002.70
2019-04-24T10:57:09.378Z,1002.63
2019-04-24T10:58:01.987Z,1002.65
2019-04-24T10:58:56.461Z,1002.55
2019-04-24T11:01:17.365Z,1002.52
2019-04-24T11:02:22.451Z,1002.56
2019-04-24T11:03:14.683Z,1002.56
2019-04-24T11:05:04.444Z,1002.60
2019-04-24T11:06:00.367Z,1002.61
2019-04-24T11:08:11.111Z,1002.63
2019-04-24T11:09:29.458Z,1002.68
2019-04-24T11:10:23.512Z,1002.67
2019-04-24T11:11:00.977Z,1002.72
2019-04-24T11:12:07.706Z,1002.70
2019-04-24T11:14:19.333Z,1002.76
2019-04-24T11:15:02.742Z,1002.80
2019-04-24T11:16:24.561Z,1002.75
2019-04-24T11:18:18.487Z,1002.74
2019-04-24T11:19:10.853Z,1002.64
2019-04-24T11:20:02.409Z,1002.63
2019-04-24T11:21:22.946Z,1002.75
2019-04-24T11:23:08.760Z,1002.76
2019-04-24T11:24:17.272Z,1002.72
2019-04-24T11:25:10.017Z,1002.79
2019-04-24T11:26:13.459Z,1002.78
2019-04-24T11:28:11.885Z,1002.74
2019-04-24T11:30:07.606Z,1002.74
2019-04-24T11:31:05.250Z,1002.79
2019-04-24T11:32:14.125Z,1002.77
2019-04-24T11:36:05.932Z,1002.72
2019-04-24T11:37:00.978Z,1002.66
2019-04-24T11:38:04.019Z,1002.64
2019-04-24T11:41:17.619Z,1002.70
2019-04-24T11:41:56.707Z,1002.70
2019-04-24T11:42:58.177Z,1002.66
2019-04-24T11:44:05.976Z,1002.64
2019-04-24T11:45:11.108Z,1002.65
2019-04-24T11:48:14.246Z,1002.61
2019-04-24T11:49:05.128Z,1002.59
2019-04-24T11:50:24.517Z,1002.59
2019-04-24T11:52:14.662Z,1002.57
2019-04-24T11:53:10.742Z,1002.57
2019-04-24T11:53:53.942Z,1002.64
2019-04-24T11:56:01.801Z,1002.60
2019-04-24T11:57:17.493Z,1002.61
2019-04-24T11:58:48.422Z,1002.60
2019-04-24T11:59:42.015Z,1002.64
2019-04-24T12:01:06.783Z,1002.59
2019-04-24T12:02:05.229Z,1002.54
2019-04-24T12:02:56.481Z,1002.55
2019-04-24T12:04:03.493Z,1002.62
2019-04-24T12:05:02.418Z,1002.62
2019-04-24T12:07:02.867Z,1002.73
2019-04-24T12:08:59.786Z,1002.56
2019-04-24T12:11:14.515Z,1002.59
2019-04-24T12:11:56.846Z,1002.58
2019-04-24T12:13:05.992Z,1002.63
2019-04-24T12:14:01.031Z,1002.61
2019-04-24T12:14:52.196Z,1002.62
2019-04-24T12:16:50.217Z,1002.60
2019-04-24T12:18:01.017Z,1002.59
2019-04-24T12:21:08.747Z,1002.59
2019-04-24T12:24:58.785Z,1002.56
2019-04-24T12:26:02.688Z,1002.57
2019-04-24T12:26:50.683Z,1002.60
2019-04-24T12:28:00.241Z,1002.60
2019-04-24T12:31:59.799Z,1002.50
2019-04-24T12:33:00.971Z,1002.46
2019-04-24T12:33:47.899Z,1002.50
2019-04-24T12:35:56.694Z,1002.49
2019-04-24T12:37:03.400Z,1002.44
2019-04-24T12:39:02.577Z,1002.55
2019-04-24T12:40:03.847Z,1002.43
2019-04-24T12:42:01.817Z,1002.53
2019-04-24T12:42:54.411Z,1002.51
2019-04-24T12:44:02.018Z,1002.43
2019-04-24T12:44:47.507Z,1002.42
2019-04-24T12:46:04.505Z,1002.38
2019-04-24T12:47:03.375Z,1002.44
2019-04-24T12:48:55.179Z,1002.41
2019-04-24T12:49:55.034Z,1002.38
2019-04-24T12:51:06.908Z,1002.38
2019-04-24T12:51:48.143Z,1002.37
2019-04-24T12:52:54.440Z,1002.39
2019-04-24T12:53:56.985Z,1002.41
2019-04-24T12:56:03.442Z,1002.31
2019-04-24T12:58:21.061Z,1002.34
2019-04-24T12:59:51.216Z,1002.39
2019-04-24T13:02:04.789Z,1002.35
2019-04-24T13:02:53.731Z,1002.36
2019-04-24T13:05:51.510Z,1002.36
2019-04-24T13:06:50.005Z,1002.28
2019-04-24T13:08:05.015Z,1002.37
2019-04-24T13:11:03.957Z,1002.32
2019-04-24T13:11:58.069Z,1002.34
2019-04-24T13:12:58.742Z,1002.36
2019-04-24T13:14:05.792Z,1002.30
2019-04-24T13:15:54.487Z,1002.27
2019-04-24T13:19:11.608Z,1002.25
2019-04-24T13:20:30.048Z,1002.22
2019-04-24T13:21:31.723Z,1002.20
2019-04-24T13:22:37.724Z,1002.22
2019-04-24T13:23:41.499Z,1002.24
2019-04-24T13:24:49.052Z,1002.28
2019-04-24T13:25:58.153Z,1002.19
2019-04-24T13:27:04.841Z,1002.19
2019-04-24T13:28:14.630Z,1002.19
2019-04-24T13:30:06.328Z,1002.19
2019-04-24T13:31:04.185Z,1002.17
2019-04-24T13:32:03.604Z,1002.13
2019-04-24T13:33:03.616Z,1002.18
2019-04-24T13:33:54.362Z,1002.18
2019-04-24T13:35:04.938Z,1002.12
2019-04-24T13:36:05.626Z,1002.10
2019-04-24T13:37:03.686Z,1002.15
2019-04-24T13:38:08.332Z,1002.10
2019-04-24T13:39:09.509Z,1002.09
2019-04-24T13:40:02.313Z,1002.08
2019-04-24T13:40:55.043Z,1002.02
2019-04-24T13:42:01.830Z,1001.95
2019-04-24T13:42:59.321Z,1002.06
2019-04-24T13:44:05.979Z,1001.97
2019-04-24T13:46:03.584Z,1001.99
2019-04-24T13:47:01.709Z,1002.00
2019-04-24T13:48:07.085Z,1002.03
2019-04-24T13:48:54.064Z,1002.05
2019-04-24T13:49:54.549Z,1002.02
2019-04-24T13:50:51.056Z,1002.00
2019-04-24T13:52:04.118Z,1002.04
2019-04-24T13:53:26.114Z,1001.97
2019-04-24T13:54:58.626Z,1001.96
2019-04-24T13:55:54.243Z,1001.96
2019-04-24T13:56:54.569Z,1001.96
2019-04-24T13:58:03.594Z,1001.93
2019-04-24T13:58:51.142Z,1001.96
2019-04-24T14:00:03.306Z,1001.89
2019-04-24T14:00:56.310Z,1001.91
2019-04-24T14:02:01.369Z,1001.88
2019-04-24T14:04:11.993Z,1001.88
2019-04-24T14:04:59.332Z,1001.85
2019-04-24T14:07:11.867Z,1001.78
2019-04-24T14:09:10.193Z,1001.77
2019-04-24T14:11:31.402Z,1001.74
2019-04-24T14:12:47.559Z,1001.83
2019-04-24T14:16:02.933Z,1001.79
2019-04-24T14:17:01.019Z,1001.83
2019-04-24T14:18:13.898Z,1001.79
2019-04-24T14:19:07.713Z,1001.79
2019-04-24T14:19:59.483Z,1001.74
2019-04-24T14:20:53.065Z,1001.72
2019-04-24T14:21:54.347Z,1001.74
2019-04-24T14:23:02.579Z,1001.77
2019-04-24T14:23:59.128Z,1001.71
2019-04-24T14:25:00.153Z,1001.71
2019-04-24T14:25:59.050Z,1001.62
2019-04-24T14:27:01.226Z,1001.67
2019-04-24T14:28:15.633Z,1001.68
2019-04-24T14:28:48.820Z,1001.67
2019-04-24T14:29:48.155Z,1001.62
2019-04-24T14:31:02.258Z,1001.68
2019-04-24T14:33:11.162Z,1001.71
2019-04-24T14:33:53.001Z,1001.68
2019-04-24T14:34:54.845Z,1001.71
2019-04-24T14:36:03.844Z,1001.67
2019-04-24T14:37:53.860Z,1001.63
2019-04-24T14:38:58.319Z,1001.64
2019-04-24T14:39:49.823Z,1001.63
2019-04-24T14:40:52.866Z,1001.55
2019-04-24T14:41:59.378Z,1001.54
2019-04-24T14:42:54.275Z,1001.53
2019-04-24T14:44:04.741Z,1001.55
2019-04-24T14:45:13.785Z,1001.50
2019-04-24T14:46:03.619Z,1001.55
2019-04-24T14:46:57.797Z,1001.54
2019-04-24T14:47:45.364Z,1001.58
2019-04-24T14:48:51.422Z,1001.48
2019-04-24T14:49:59.386Z,1001.48
2019-04-24T14:50:47.593Z,1001.54
2019-04-24T14:51:49.541Z,1001.59
2019-04-24T14:53:54.512Z,1001.52
2019-04-24T14:54:51.781Z,1001.50
2019-04-24T14:55:49.593Z,1001.48
2019-04-24T14:56:58.949Z,1001.50
2019-04-24T14:58:58.756Z,1001.54
2019-04-24T14:59:54.765Z,1001.48
2019-04-24T15:00:46.937Z,1001.50
2019-04-24T15:01:56.292Z,1001.52
2019-04-24T15:02:52.787Z,1001.46
2019-04-24T15:03:48.646Z,1001.46
2019-04-24T15:04:49.912Z,1001.46
2019-04-24T15:06:01.222Z,1001.42
2019-04-24T15:06:58.209Z,1001.44
2019-04-24T15:07:55.326Z,1001.44
2019-04-24T15:08:54.332Z,1001.43
2019-04-24T15:09:43.183Z,1001.35
2019-04-24T15:10:45.309Z,1001.38
2019-04-24T15:12:07.192Z,1001.31
2019-04-24T15:14:59.486Z,1001.36
2019-04-24T15:16:12.151Z,1001.35
2019-04-24T15:17:50.404Z,1001.32
2019-04-24T15:20:46.482Z,1001.23
2019-04-24T15:21:56.817Z,1001.25
2019-04-24T15:25:00.951Z,1001.30
2019-04-24T15:26:49.472Z,1001.24
2019-04-24T15:27:46.922Z,1001.27
2019-04-24T15:28:52.445Z,1001.24
2019-04-24T15:30:47.382Z,1001.24
2019-04-24T15:31:53.810Z,1001.24
2019-04-24T15:33:57.436Z,1001.20
2019-04-24T15:34:51.589Z,1001.20
2019-04-24T15:36:00.902Z,1001.21
2019-04-24T15:36:45.571Z,1001.27
2019-04-24T15:38:49.524Z,1001.17
2019-04-24T15:39:49.837Z,1001.18
2019-04-24T15:41:11.715Z,1001.24
2019-04-24T15:41:53.415Z,1001.22
2019-04-24T15:42:51.725Z,1001.20
2019-04-24T15:43:44.350Z,1001.18
2019-04-24T15:44:48.408Z,1001.18
2019-04-24T15:45:45.302Z,1001.23
2019-04-24T15:46:47.079Z,1001.09
2019-04-24T15:47:59.094Z,1001.15
2019-04-24T15:50:49.151Z,1001.15
2019-04-24T15:51:34.057Z,1001.07
2019-04-24T15:52:13.469Z,1001.13
2019-04-24T15:53:13.636Z,1001.10
2019-04-24T15:54:13.301Z,1001.10
2019-04-24T15:55:13.650Z,1001.17
2019-04-24T15:56:13.149Z,1001.09
2019-04-24T15:57:13.303Z,1001.11
2019-04-24T15:58:23.310Z,1001.12
2019-04-24T15:59:36.218Z,1001.07
2019-04-24T16:00:54.085Z,1001.10
2019-04-24T16:01:43.698Z,1001.17
2019-04-24T16:02:50.864Z,1001.12
2019-04-24T16:03:50.058Z,1001.11
2019-04-24T16:04:53.145Z,1001.08
2019-04-24T16:05:12.462Z,1001.12
2019-04-24T16:06:12.388Z,1001.14
2019-04-24T16:07:12.313Z,1001.10
2019-04-24T16:08:12.226Z,1001.14
2019-04-24T16:09:12.945Z,1001.14
2019-04-24T16:10:12.077Z,1001.06
2019-04-24T16:11:12.001Z,1001.17
2019-04-24T16:12:11.925Z,1001.04
2019-04-24T16:13:16.627Z,1001.10
2019-04-24T16:14:23.874Z,1001.10
2019-04-24T16:15:40.556Z,1001.10
2019-04-24T16:16:48.025Z,1001.12
2019-04-24T16:17:45.864Z,1001.18
2019-04-24T16:19:06.433Z,1001.11
2019-04-24T16:19:41.051Z,1001.10
2019-04-24T16:20:37.043Z,1001.11
2019-04-24T16:21:37.471Z,1001.14
2019-04-24T16:22:39.776Z,1001.12
2019-04-24T16:25:37.186Z,1001.15
2019-04-24T16:27:58.690Z,1001.12
2019-04-24T16:28:47.659Z,1001.15
2019-04-24T16:30:35.385Z,1001.13
2019-04-24T16:32:03.886Z,1001.15
2019-04-24T16:33:35.899Z,1001.14
2019-04-24T16:35:53.641Z,1001.17
2019-04-24T16:36:48.608Z,1001.23
2019-04-24T16:38:55.112Z,1001.23
2019-04-24T16:40:00.470Z,1001.21
2019-04-24T16:40:55.199Z,1001.21
2019-04-24T16:41:47.818Z,1001.16
2019-04-24T16:43:36.499Z,1001.21
2019-04-24T16:44:42.938Z,1001.16
2019-04-24T16:45:40.263Z,1001.19
2019-04-24T16:49:52.189Z,1001.21
2019-04-24T16:52:36.722Z,1001.22
2019-04-24T16:53:41.888Z,1001.20
2019-04-24T16:54:29.418Z,1001.17
2019-04-24T16:55:37.079Z,1001.17
2019-04-24T16:56:42.715Z,1001.24
2019-04-24T16:57:51.754Z,1001.24
2019-04-24T16:58:31.505Z,1001.27
2019-04-24T16:59:21.392Z,1001.21
2019-04-24T17:01:52.192Z,1001.26
2019-04-24T17:02:40.119Z,1001.24
2019-04-24T17:04:05.165Z,1001.22
2019-04-24T17:04:40.244Z,1001.26
2019-04-24T17:06:43.129Z,1001.26
2019-04-24T17:07:38.903Z,1001.21
2019-04-24T17:10:42.347Z,1001.30
2019-04-24T17:11:36.384Z,1001.28
2019-04-24T17:12:49.316Z,1001.26
2019-04-24T17:14:35.769Z,1001.29
2019-04-24T17:16:39.908Z,1001.26